Time;durP1;ratioP1;P1;durP2;ratioP2;P2;SDS_P1;SDS_P2;PMS_P1;PMS_P2;Temp;Humidity;BMP_temperature;BMP_pressure;BME280_temperature;BME280_humidity;BME280_pressure;Samples;Min_cycle;Max_cycle;Signal;HPM_P1;HPM_P2
2021/05/18 00:00:25;;;;;;;;;0.00;0.00;;;;;21.86;38.86;101250.34;5074661;28;45452;-57
2021/05/18 00:02:51;;;;;;;;;0.00;0.00;;;;;21.87;39.00;101254.69;5074133;28;47289;-57
2021/05/18 00:14:08;;;;;;;;;0.00;0.00;;;;;21.78;39.28;101250.06;5072891;28;45661;-58
2021/05/18 00:16:33;;;;;;;;;0.00;0.00;;;;;21.77;39.24;101253.66;5073348;27;45733;-57
2021/05/18 00:18:59;;;;;;;;;0.00;0.00;;;;;21.74;39.25;101256.53;5074069;28;45596;-57
2021/05/18 00:21:24;;;;;;;;;0.00;0.00;;;;;21.73;38.99;101255.72;5074178;28;45518;-57
2021/05/18 00:23:50;;;;;;;;;0.00;0.00;;;;;21.70;38.91;101263.84;5072916;28;47764;-58
2021/05/18 00:26:15;;;;;;;;;0.00;0.00;;;;;21.67;39.25;101257.91;5073522;28;45446;-57
2021/05/18 00:28:42;;;;;;;;;0.00;0.00;;;;;21.64;39.05;101261.66;5074334;28;45687;-57
2021/05/18 00:31:08;;;;;;;;;0.00;0.00;;;;;21.61;39.28;101253.88;5074100;28;45415;-57
2021/05/18 00:33:34;;;;;;;;;0.00;0.00;;;;;21.61;39.17;101254.75;5073731;28;47305;-57
2021/05/18 00:36:01;;;;;;;;;0.00;0.00;;;;;21.61;39.02;101267.19;5072595;28;45802;-57
2021/05/18 00:38:27;;;;;;;;;0.00;0.00;;;;;21.55;38.95;101249.00;5074012;28;45719;-57
2021/05/18 00:40:53;;;;;;;;;0.00;0.00;;;;;21.59;38.80;101259.31;5073903;28;45669;-58
2021/05/18 00:43:19;;;;;;;;;0.00;0.00;;;;;21.63;39.10;101259.97;5073643;28;46336;-57
2021/05/18 00:45:48;;;;;;;;;0.00;0.00;;;;;21.63;38.94;101258.13;5073495;28;45446;-58
2021/05/18 00:48:17;;;;;;;;;0.00;0.00;;;;;21.64;39.02;101256.34;5073081;28;45452;-57
2021/05/18 00:50:49;;;;;;;;;0.00;0.00;;;;;21.65;39.37;101260.69;5074075;28;45612;-57
2021/05/18 00:53:16;;;;;;;;;0.00;0.00;;;;;21.65;38.85;101266.00;5073421;28;47593;-57
2021/05/18 00:55:48;;;;;;;;;0.00;0.00;;;;;21.66;39.08;101261.53;5073643;28;45745;-57
2021/05/18 01:01:11;;;;;;;;;0.00;0.00;;;;;21.67;38.99;101255.25;5073751;28;45418;-57
2021/05/18 01:03:38;;;;;;;;;0.00;0.00;;;;;21.65;38.85;101252.72;5073431;28;47139;-57
2021/05/18 01:08:57;;;;;;;;;0.00;0.00;;;;;21.66;38.90;101249.09;5073451;27;45438;-57
2021/05/18 01:11:29;;;;;;;;;0.00;0.00;;;;;21.67;38.99;101250.78;5073573;27;45598;-57
2021/05/18 01:13:59;;;;;;;;;0.00;0.00;;;;;21.66;39.00;101257.06;5072023;28;47096;-58
2021/05/18 01:16:28;;;;;;;;;0.00;0.00;;;;;21.66;38.81;101250.91;5073262;28;45384;-57
2021/05/18 01:18:54;;;;;;;;;0.00;0.00;;;;;21.64;38.63;101251.00;5073274;28;45593;-57
2021/05/18 01:21:20;;;;;;;;;0.00;0.00;;;;;21.64;38.71;101256.34;5073458;28;45400;-57
2021/05/18 01:23:45;;;;;;;;;0.00;0.00;;;;;21.64;38.87;101240.38;5072676;28;46008;-58
2021/05/18 01:26:14;;;;;;;;;0.00;0.00;;;;;21.66;38.83;101253.56;5072116;28;45465;-57
2021/05/18 01:28:40;;;;;;;;;0.00;0.00;;;;;21.64;38.63;101254.50;5073267;28;45546;-57
2021/05/18 01:31:08;;;;;;;;;0.00;0.00;;;;;21.65;38.68;101250.06;5073392;28;45465;-57
2021/05/18 01:33:34;;;;;;;;;0.00;0.00;;;;;21.64;38.46;101246.53;5072780;28;47147;-57
2021/05/18 01:36:01;;;;;;;;;0.00;0.00;;;;;21.65;38.67;101266.00;5071855;28;45554;-57
2021/05/18 01:38:43;;;;;;;;;0.00;0.00;;;;;21.64;38.61;101265.13;5073264;28;45415;-57
2021/05/18 01:43:54;;;;;;;;;0.00;0.00;;;;;21.63;38.33;101265.28;5071492;27;45880;-58
2021/05/18 01:46:24;;;;;;;;;0.00;0.00;;;;;21.62;38.70;101267.06;5072771;28;45624;-57
2021/05/18 01:49:07;;;;;;;;;0.00;0.00;;;;;21.63;38.76;101268.75;5072937;28;45518;-57
2021/05/18 01:51:38;;;;;;;;;0.00;0.00;;;;;21.63;38.58;101270.59;5073202;28;45710;-57
2021/05/18 01:54:16;;;;;;;;;0.00;0.00;;;;;21.62;38.49;101277.69;5071428;28;47218;-57
2021/05/18 01:59:19;;;;;;;;;0.00;0.00;;;;;21.62;38.33;101269.72;5073035;28;45560;-57
2021/05/18 02:01:49;;;;;;;;;0.00;0.00;;;;;21.61;38.80;101276.00;5072732;28;45620;-58
2021/05/18 02:04:31;;;;;;;;;0.00;0.00;;;;;21.62;38.51;101271.53;5072029;28;46307;-57
2021/05/18 02:06:58;;;;;;;;;0.00;0.00;;;;;21.61;38.79;101259.19;5072382;28;45622;-57
2021/05/18 02:09:25;;;;;;;;;0.00;0.00;;;;;21.60;38.74;101269.00;5072936;28;45487;-57
2021/05/18 02:11:51;;;;;;;;;0.00;0.00;;;;;21.60;38.71;101278.78;5071819;28;45561;-58
2021/05/18 02:14:27;;;;;;;;;0.00;0.00;;;;;21.53;38.42;101261.56;5072201;28;46405;-57
2021/05/18 02:17:00;;;;;;;;;0.00;0.00;;;;;21.60;38.44;101270.78;5078244;27;45553;-57
2021/05/18 02:19:37;;;;;;;;;0.00;0.00;;;;;21.60;38.74;101279.63;5092789;27;45496;-57
2021/05/18 02:25:08;;;;;;;;;0.75;0.00;;;;;21.59;38.63;101264.63;5009049;28;45510;-57
2021/05/18 02:27:36;;;;;;;;;0.00;0.00;;;;;21.60;38.40;101257.50;5009227;28;45778;-57
2021/05/18 02:30:04;;;;;;;;;0.00;0.00;;;;;21.60;38.20;101257.50;5048683;27;45701;-60
2021/05/18 02:32:31;;;;;;;;;0.00;0.00;;;;;21.61;38.39;101262.72;5092315;27;45466;-57
2021/05/18 02:34:57;;;;;;;;;0.00;0.00;;;;;21.61;38.28;101260.06;5092528;27;47210;-57
2021/05/18 02:37:22;;;;;;;;;0.00;0.00;;;;;21.61;38.63;101256.53;5092405;27;45472;-57
2021/05/18 02:39:48;;;;;;;;;0.00;0.00;;;;;21.61;38.57;101261.84;5093548;27;45741;-58
2021/05/18 02:42:14;;;;;;;;;0.00;0.00;;;;;21.55;38.54;101254.34;5089467;27;45522;-57
2021/05/18 02:50:08;;;;;;;;;0.00;0.00;;;;;21.61;38.29;101264.50;5074630;28;45730;-57
2021/05/18 02:52:34;;;;;;;;;0.00;0.00;;;;;21.53;38.71;101248.28;5075537;28;45432;-57
2021/05/18 02:55:01;;;;;;;;;0.00;0.00;;;;;21.59;38.56;101255.81;5075248;28;46568;-57
2021/05/18 02:57:34;;;;;;;;;0.00;0.00;;;;;21.59;38.26;101259.31;5075515;28;45357;-57
2021/05/18 03:00:04;;;;;;;;;0.25;0.00;;;;;21.43;38.60;101235.66;5074249;28;45425;-58
2021/05/18 03:02:30;;;;;;;;;0.00;0.00;;;;;21.59;38.46;101255.81;5075386;28;45498;-57
2021/05/18 03:04:55;;;;;;;;;1.00;0.00;;;;;21.59;38.26;101263.78;5075177;28;46284;-57
2021/05/18 03:07:21;;;;;;;;;0.00;0.00;;;;;21.58;38.38;101256.78;5075298;28;45766;-57
2021/05/18 03:09:47;;;;;;;;;0.00;0.00;;;;;21.59;38.20;101255.81;5075418;28;45664;-58
2021/05/18 03:12:12;;;;;;;;;0.00;0.00;;;;;21.59;38.29;101258.47;5074556;27;45340;-57
2021/05/18 03:14:38;;;;;;;;;0.00;0.00;;;;;21.60;38.46;101263.69;5095638;27;47004;-57
2021/05/18 03:17:03;;;;;;;;;0.75;0.00;;;;;21.57;38.27;101252.41;5095280;27;45502;-57
2021/05/18 03:19:30;;;;;;;;;0.00;0.00;;;;;21.62;38.26;101271.53;5095704;27;45732;-57
2021/05/18 03:21:56;;;;;;;;;0.00;0.00;;;;;21.62;38.54;101279.50;5094311;27;45423;-57
2021/05/18 03:24:21;;;;;;;;;0.00;0.00;;;;;21.62;38.48;101287.47;5095205;27;47340;-57
2021/05/18 03:26:49;;;;;;;;;0.00;0.00;;;;;21.63;38.48;101305.16;5095247;27;45388;-58
2021/05/18 03:29:37;;;;;;;;;0.00;0.00;;;;;21.64;38.21;101307.66;5095125;27;45624;-57
2021/05/18 03:34:47;;;;;;;;;0.00;0.00;;;;;21.66;38.33;101288.97;5074786;28;45803;-57
2021/05/18 03:39:50;;;;;;;;;0.00;0.00;;;;;21.68;38.28;101270.25;5074762;28;45639;-58
2021/05/18 03:42:23;;;;;;;;;1.00;0.00;;;;;21.69;38.50;101277.25;5074727;28;45376;-57
2021/05/18 03:45:07;;;;;;;;;0.00;0.00;;;;;21.71;37.97;101289.50;5074202;28;47189;-57
2021/05/18 04:17:17;;;;;;;;;0.00;0.00;;;;;21.81;38.10;101307.47;5074090;28;45780;-57
2021/05/18 04:19:51;;;;;;;;;0.00;0.00;;;;;21.80;37.75;101306.59;5073867;28;45798;-57
2021/05/18 04:25:06;;;;;;;;;0.00;0.00;;;;;21.80;37.75;101311.94;5074149;28;45470;-57
2021/05/18 04:51:53;;;;;;;;;0.50;0.00;;;;;21.80;37.88;101308.44;5073779;28;45707;-57
2021/05/18 04:59:39;;;;;;;;;0.00;0.00;;;;;21.82;38.00;101314.47;5073486;28;45840;-57
2021/05/18 05:07:07;;;;;;;;;0.00;0.00;;;;;21.84;37.54;101317.91;5084339;27;45511;-57
2021/05/18 05:09:46;;;;;;;;;0.00;0.00;;;;;21.85;37.60;101319.59;5093827;27;46919;-57
2021/05/18 05:14:46;;;;;;;;;0.00;0.00;;;;;21.86;37.58;101327.47;5093854;27;45563;-58
2021/05/18 05:17:12;;;;;;;;;0.00;0.00;;;;;21.89;37.62;101323.75;5093865;27;45396;-57
2021/05/18 05:19:37;;;;;;;;;0.00;0.00;;;;;21.89;37.92;101327.22;5093177;27;46368;-57
2021/05/18 05:22:05;;;;;;;;;0.00;0.00;;;;;21.90;37.90;101325.44;5092157;27;45403;-57
2021/05/18 05:24:33;;;;;;;;;0.00;0.00;;;;;21.92;37.44;101333.31;5093099;27;45558;-57
2021/05/18 05:27:00;;;;;;;;;0.00;0.00;;;;;21.94;37.91;101331.38;5093243;27;45429;-57
2021/05/18 05:29:26;;;;;;;;;0.00;0.00;;;;;21.93;37.62;101333.16;5093125;27;47364;-57
2021/05/18 05:31:54;;;;;;;;;0.00;0.00;;;;;21.96;37.83;101335.63;5091916;27;45900;-58
2021/05/18 05:34:20;;;;;;;;;0.00;0.00;;;;;21.96;37.64;101335.63;5093064;27;45513;-57
2021/05/18 05:36:46;;;;;;;;;0.00;0.00;;;;;21.96;37.39;101332.97;5093306;27;45664;-58
2021/05/18 05:39:23;;;;;;;;;0.00;0.00;;;;;21.97;37.53;101337.31;5092942;27;47121;-57
2021/05/18 05:41:50;;;;;;;;;0.00;0.00;;;;;21.96;37.70;101338.28;5092438;27;45737;-58
2021/05/18 05:44:17;;;;;;;;;0.00;0.00;;;;;21.97;37.41;101332.00;5092868;27;45505;-57
2021/05/18 05:46:43;;;;;;;;;0.00;0.00;;;;;21.98;37.49;101343.50;5084468;27;45665;-57
2021/05/18 05:49:08;;;;;;;;;0.00;0.00;;;;;21.98;37.37;101344.31;5072435;28;47086;-57
2021/05/18 05:51:34;;;;;;;;;0.00;0.00;;;;;21.98;37.34;101346.16;5072601;28;45490;-57
2021/05/18 05:54:00;;;;;;;;;0.00;0.00;;;;;21.98;37.49;101347.00;5071058;28;45451;-57
2021/05/18 05:56:26;;;;;;;;;0.00;0.00;;;;;21.99;37.58;101339.88;5072800;28;45554;-57
2021/05/18 05:58:52;;;;;;;;;0.00;0.00;;;;;21.95;37.25;101336.59;5072088;28;47194;-57
2021/05/18 06:01:19;;;;;;;;;0.00;0.00;;;;;22.00;37.59;101345.09;5072214;28;45719;-58
2021/05/18 06:03:46;;;;;;;;;0.00;0.00;;;;;22.00;37.29;101342.44;5072665;28;45469;-58
2021/05/18 06:06:13;;;;;;;;;0.00;0.00;;;;;21.96;37.25;101337.41;5071446;28;45493;-57
2021/05/18 06:08:41;;;;;;;;;0.00;0.00;;;;;22.00;37.47;101350.41;5072338;28;47177;-57
2021/05/18 06:11:59;;;;;;;;;1.00;0.00;;;;;22.02;37.16;101355.63;5072083;28;45572;-57
2021/05/18 06:49:17;;;;;;;;;0.00;0.00;;;;;22.17;37.00;101372.28;5075496;28;45434;-57
2021/05/18 06:51:42;;;;;;;;;0.00;0.00;;;;;22.17;37.49;101389.06;5075028;28;46068;-57
2021/05/18 06:54:08;;;;;;;;;0.00;0.00;;;;;22.15;37.24;101379.50;5073848;28;45427;-57
2021/05/18 06:56:36;;;;;;;;;0.00;0.00;;;;;22.20;37.15;101385.34;5075309;28;45386;-57
2021/05/18 07:01:29;;;;;;;;;0.00;0.00;;;;;22.19;37.13;101375.66;5074899;28;47499;-57
2021/05/18 07:03:56;;;;;;;;;0.00;0.00;;;;;22.24;37.09;101386.81;5073878;28;45497;-57
2021/05/18 07:08:56;;;;;;;;;0.00;0.00;;;;;22.24;36.81;101394.81;5075045;28;45625;-57
2021/05/18 07:11:21;;;;;;;;;0.00;0.00;;;;;22.25;37.14;101398.31;5074851;28;47017;-57
2021/05/18 07:13:48;;;;;;;;;0.00;0.00;;;;;22.26;37.17;101400.88;5077750;27;45565;-57
2021/05/18 07:16:14;;;;;;;;;0.00;0.00;;;;;22.25;37.11;101395.66;5086671;27;45473;-56
2021/05/18 07:18:39;;;;;;;;;0.00;0.00;;;;;22.18;37.44;101381.94;5089390;27;45836;-56
2021/05/18 07:21:05;;;;;;;;;0.00;0.00;;;;;22.24;36.99;101396.63;5083906;27;53182;-56
2021/05/18 07:23:33;;;;;;;;;0.00;0.00;;;;;22.18;37.28;101387.28;5074377;27;45432;-56
2021/05/18 07:25:58;;;;;;;;;0.00;0.00;;;;;22.22;36.97;101399.41;5073319;28;45746;-56
2021/05/18 07:28:29;;;;;;;;;0.00;0.00;;;;;22.24;37.23;101400.13;5074704;28;45486;-57
2021/05/18 07:30:55;;;;;;;;;0.00;0.00;;;;;22.24;37.06;101389.47;5076017;27;46395;-56
2021/05/18 07:33:20;;;;;;;;;0.00;0.00;;;;;22.26;37.24;101386.72;5074085;28;45688;-56
2021/05/18 07:35:46;;;;;;;;;0.00;0.00;;;;;22.26;37.34;101386.72;5074148;27;45698;-57
2021/05/18 07:38:12;;;;;;;;;0.00;0.00;;;;;22.21;37.01;101379.06;5073299;28;45462;-55
2021/05/18 07:40:37;;;;;;;;;0.00;0.00;;;;;22.22;37.35;101372.78;5074039;28;45534;-56
2021/05/18 07:43:05;;;;;;;;;0.00;0.00;;;;;22.28;37.32;101385.66;5074244;28;45652;-56
2021/05/18 07:45:31;;;;;;;;;0.00;0.00;;;;;22.27;37.52;101389.28;5074282;28;45549;-57
2021/05/18 07:48:16;;;;;;;;;0.50;0.00;;;;;22.30;37.27;101381.03;5073288;28;45436;-57
2021/05/18 07:50:47;;;;;;;;;0.00;0.00;;;;;22.32;37.39;101390.75;5074146;28;47276;-56
2021/05/18 08:06:51;;;;;;;;;1.00;0.00;;;;;22.35;37.07;101404.69;5074129;28;45408;-57
2021/05/18 08:09:19;;;;;;;;;0.00;0.00;;;;;22.37;37.19;101399.25;5074139;28;45712;-56
2021/05/18 08:11:45;;;;;;;;;0.00;0.00;;;;;22.37;37.17;101400.09;5073434;27;47093;-58
2021/05/18 08:14:10;;;;;;;;;0.25;0.00;;;;;22.39;37.24;101403.50;5072575;28;45463;-57
2021/05/18 08:22:16;;;;;;;;;0.00;0.00;;;;;22.42;36.87;101397.09;5093742;27;45612;-58
2021/05/18 08:55:24;;;;;;;;;0.00;0.00;;;;;22.38;37.62;101390.31;5079605;27;45530;-55
2021/05/18 09:29:04;;;;;;;;;0.00;0.00;;;;;22.37;37.95;101394.75;5091964;27;45509;-57
2021/05/18 10:37:24;;;;;;;;;1.00;1.00;;;;;22.40;37.88;101354.63;5082763;27;45992;-57
2021/05/18 10:40:16;;;;;;;;;0.00;0.00;;;;;22.42;37.89;101347.38;5090311;27;45355;-59
2021/05/18 10:43:07;;;;;;;;;0.00;0.00;;;;;22.43;37.72;101341.09;5080298;27;45646;-57
2021/05/18 10:46:00;;;;;;;;;0.00;0.00;;;;;22.42;37.65;101336.72;5095209;27;45565;-57
2021/05/18 10:48:26;;;;;;;;;0.00;0.00;;;;;22.42;37.67;101343.88;5094814;27;47291;-57
2021/05/18 10:50:55;;;;;;;;;0.00;0.00;;;;;22.43;37.68;101345.56;5094879;27;45742;-56
2021/05/18 10:53:22;;;;;;;;;0.00;0.00;;;;;22.42;37.70;101336.72;5075629;27;45622;-56
2021/05/18 10:56:08;;;;;;;;;0.00;0.00;;;;;22.43;37.81;101334.94;5081778;27;45753;-58
2021/05/18 10:58:35;;;;;;;;;0.00;0.00;;;;;22.41;37.56;101334.16;5092273;27;47059;-58
2021/05/18 11:01:02;;;;;;;;;1.00;0.00;;;;;22.41;37.81;101334.16;5093039;27;45524;-51
2021/05/18 11:03:28;;;;;;;;;0.00;0.00;;;;;22.40;37.72;101340.47;5091142;27;45637;-57
2021/05/18 11:05:53;;;;;;;;;0.00;0.00;;;;;22.40;37.86;101345.78;5090072;27;45473;-57
2021/05/18 11:08:19;;;;;;;;;0.00;0.00;;;;;22.39;37.63;101342.28;5085789;27;45950;-57
2021/05/18 11:10:46;;;;;;;;;0.00;0.00;;;;;22.41;37.51;101339.50;5088400;27;45437;-59
2021/05/18 11:13:13;;;;;;;;;0.00;0.00;;;;;22.39;37.50;101336.09;5091060;27;45648;-57
2021/05/18 11:15:39;;;;;;;;;0.00;0.00;;;;;22.35;37.85;101332.84;5093163;27;45616;-57
2021/05/18 11:18:05;;;;;;;;;0.00;0.00;;;;;22.37;37.94;101328.22;5091588;27;46126;-57
2021/05/18 11:23:26;;;;;;;;;0.00;0.00;;;;;22.39;37.60;101331.66;5088981;27;45586;-57
2021/05/18 11:25:57;;;;;;;;;0.00;0.00;;;;;22.39;37.39;101331.66;5090232;27;45891;-58
2021/05/18 11:28:26;;;;;;;;;0.00;0.00;;;;;22.39;37.88;101336.97;5088315;27;46478;-57
2021/05/18 11:30:59;;;;;;;;;0.00;0.00;;;;;22.41;37.97;101335.03;5092597;27;45518;-58
2021/05/18 11:33:33;;;;;;;;;0.00;0.00;;;;;22.41;37.79;101331.50;5088834;27;45860;-57
2021/05/18 11:36:13;;;;;;;;;0.00;0.00;;;;;22.39;37.91;101339.63;5075966;27;45841;-57
2021/05/18 11:38:52;;;;;;;;;0.00;0.00;;;;;22.39;37.53;101344.94;5092682;27;47306;-57
2021/05/18 11:41:25;;;;;;;;;0.00;0.00;;;;;22.37;38.31;101333.56;5079169;27;45778;-55
2021/05/18 11:43:52;;;;;;;;;0.00;0.00;;;;;22.38;38.12;101331.75;5073384;28;45732;-58
2021/05/18 11:46:18;;;;;;;;;0.00;0.00;;;;;22.37;37.93;101333.56;5090550;27;45514;-54
2021/05/18 11:49:02;;;;;;;;;0.00;0.00;;;;;22.37;37.54;101328.22;5074428;27;46234;-55
2021/05/18 11:51:30;;;;;;;;;0.50;0.00;;;;;22.34;37.74;101328.47;5080506;27;45569;-57
2021/05/18 11:54:04;;;;;;;;;0.00;0.00;;;;;22.35;37.62;101335.50;5087127;27;45899;-55
2021/05/18 11:56:33;;;;;;;;;0.00;0.00;;;;;22.36;38.06;101331.00;5073996;28;45665;-54
2021/05/18 11:59:04;;;;;;;;;0.00;0.00;;;;;22.36;37.75;101323.88;5082232;27;46028;-54
2021/05/18 12:01:32;;;;;;;;;0.00;0.00;;;;;22.32;37.75;101309.09;5091647;27;45800;-55
2021/05/18 12:04:14;;;;;;;;;0.25;0.00;;;;;22.35;38.24;101314.19;5091896;27;45466;-58
2021/05/18 12:07:02;;;;;;;;;0.00;0.00;;;;;22.32;37.89;101309.09;5082747;27;45612;-57
2021/05/18 12:09:32;;;;;;;;;0.00;0.00;;;;;22.36;37.77;101307.06;5088802;27;47149;-56
2021/05/18 12:12:00;;;;;;;;;0.00;0.00;;;;;22.37;38.15;101300.78;5079729;27;45700;-55
2021/05/18 12:14:27;;;;;;;;;0.00;0.00;;;;;22.40;38.14;101309.38;5088156;27;45589;-56
2021/05/18 12:16:53;;;;;;;;;0.00;0.00;;;;;22.40;38.36;101309.38;5092529;27;45551;-55
2021/05/18 12:19:20;;;;;;;;;0.00;0.00;;;;;22.41;38.55;101308.41;5076677;27;47093;-57
2021/05/18 12:21:49;;;;;;;;;0.00;0.00;;;;;22.42;38.38;101310.09;5085377;27;45462;-57
2021/05/18 12:24:20;;;;;;;;;0.00;0.00;;;;;22.43;38.06;101318.97;5087931;27;45629;-57
2021/05/18 12:26:58;;;;;;;;;0.00;0.00;;;;;22.44;38.08;101310.00;5092850;27;45770;-57
2021/05/18 12:29:32;;;;;;;;;0.00;0.00;;;;;22.44;38.08;101315.31;5092815;27;47488;-58
2021/05/18 12:32:16;;;;;;;;;0.00;0.00;;;;;22.46;38.24;101300.06;5082020;27;45948;-58
2021/05/18 12:34:42;;;;;;;;;0.00;0.00;;;;;22.49;38.68;101310.50;5085352;27;45439;-55
2021/05/18 12:37:08;;;;;;;;;0.00;0.00;;;;;22.51;38.25;101310.41;5081594;27;45764;-57
2021/05/18 12:39:37;;;;;;;;;0.00;0.00;;;;;22.48;38.31;101302.63;5079601;27;46080;-56
2021/05/18 12:42:06;;;;;;;;;1.00;0.00;;;;;22.53;38.00;101311.16;5084813;27;45573;-56
2021/05/18 12:44:54;;;;;;;;;0.00;0.00;;;;;22.52;38.49;101304.09;5082717;27;45418;-58
2021/05/18 12:47:34;;;;;;;;;0.00;0.00;;;;;22.56;38.37;101313.59;5090518;27;45557;-57
2021/05/18 12:50:03;;;;;;;;;0.00;0.00;;;;;22.56;38.35;101309.09;5085986;27;46694;-57
2021/05/18 12:52:52;;;;;;;;;0.00;0.00;;;;;22.59;38.16;101315.19;5082843;27;45654;-57
2021/05/18 12:55:23;;;;;;;;;0.00;0.00;;;;;22.60;38.36;101317.75;5085826;27;45557;-57
2021/05/18 12:57:56;;;;;;;;;0.00;0.00;;;;;22.62;38.26;101317.59;5078448;27;45674;-59
2021/05/18 13:00:44;;;;;;;;;0.00;0.00;;;;;22.64;38.08;101315.69;5081616;27;45694;-57
2021/05/18 13:03:13;;;;;;;;;0.00;0.00;;;;;22.64;38.45;101324.50;5079938;27;46040;-58
2021/05/18 13:05:42;;;;;;;;;0.00;0.00;;;;;22.64;38.14;101321.84;5089139;27;45926;-57
2021/05/18 13:08:20;;;;;;;;;0.00;0.00;;;;;22.65;38.37;101325.38;5090040;27;45597;-57
2021/05/18 13:10:51;;;;;;;;;0.00;0.00;;;;;22.64;37.87;101326.34;5089573;27;47289;-57
2021/05/18 13:13:22;;;;;;;;;0.00;0.00;;;;;22.66;38.08;101325.25;5091420;27;45445;-57
2021/05/18 13:15:48;;;;;;;;;0.00;0.00;;;;;22.69;38.04;101327.66;5082748;27;45520;-60
2021/05/18 13:18:16;;;;;;;;;1.00;0.00;;;;;22.74;38.17;101342.47;5081933;27;45596;-58
2021/05/18 13:20:46;;;;;;;;;0.00;0.00;;;;;22.77;38.22;101352.88;5087360;27;46364;-57
2021/05/18 13:23:26;;;;;;;;;0.00;0.00;;;;;22.81;37.99;101346.34;5078297;27;45729;-58
2021/05/18 13:28:36;;;;;;;;;1.00;0.00;;;;;22.88;38.07;101333.41;5073371;27;45718;-58
2021/05/18 13:31:03;;;;;;;;;0.00;0.00;;;;;22.89;38.03;101341.28;5072968;27;46112;-58
2021/05/18 13:33:28;;;;;;;;;0.00;0.00;;;;;22.90;38.42;101358.13;5090206;27;45715;-56
2021/05/18 13:35:55;;;;;;;;;0.00;0.00;;;;;22.90;37.85;101358.97;5080450;27;45640;-58
2021/05/18 13:38:22;;;;;;;;;0.00;0.00;;;;;22.92;37.92;101365.06;5076799;27;45452;-57
2021/05/18 13:40:48;;;;;;;;;0.00;0.00;;;;;22.92;38.48;101357.06;5091326;27;46332;-57
2021/05/18 13:43:14;;;;;;;;;0.00;0.00;;;;;22.93;38.29;101356.09;5083285;27;45586;-56
2021/05/18 13:45:39;;;;;;;;;1.00;0.00;;;;;22.95;38.43;101354.13;5086622;27;45844;-57
2021/05/18 13:48:42;;;;;;;;;0.00;0.00;;;;;22.98;38.03;101353.06;5084411;27;45543;-57
2021/05/18 13:51:13;;;;;;;;;0.00;0.00;;;;;22.98;38.38;101361.06;5081917;27;46400;-58
2021/05/18 13:53:39;;;;;;;;;0.00;0.00;;;;;22.98;38.17;101347.72;5077066;27;45680;-58
2021/05/18 13:56:04;;;;;;;;;0.00;0.00;;;;;23.00;38.30;101350.28;5071223;27;45831;-58
2021/05/18 13:58:30;;;;;;;;;0.00;0.00;;;;;23.00;37.81;101343.16;5081806;27;45619;-57
2021/05/18 14:00:56;;;;;;;;;0.00;0.00;;;;;23.00;37.97;101343.16;5091283;27;46222;-56
2021/05/18 14:03:24;;;;;;;;;0.00;0.00;;;;;23.01;37.68;101339.53;5084423;27;45690;-57
2021/05/18 14:05:50;;;;;;;;;0.00;0.00;;;;;23.02;38.23;101330.56;5076390;27;45513;-58
2021/05/18 14:08:23;;;;;;;;;0.00;0.00;;;;;23.03;37.89;101334.91;5080707;27;45530;-58
2021/05/18 14:11:10;;;;;;;;;0.00;0.00;;;;;23.05;38.46;101332.13;5090237;27;46978;-56
2021/05/18 14:13:39;;;;;;;;;0.00;0.00;;;;;23.06;37.99;101323.16;5087500;27;45540;-56
2021/05/18 14:16:06;;;;;;;;;0.00;0.00;;;;;23.06;38.02;101332.03;5077348;27;45879;-58
2021/05/18 14:18:33;;;;;;;;;0.00;0.00;;;;;23.07;38.42;101330.19;5077219;27;45632;-59
2021/05/18 14:21:03;;;;;;;;;1.00;0.00;;;;;23.08;37.92;101335.41;5071046;27;45808;-56
2021/05/18 14:24:08;;;;;;;;;0.00;0.00;;;;;23.07;38.34;101331.06;5076034;27;45443;-57
2021/05/18 14:26:22;;;;;;;;;0.00;0.00;;;;;23.05;38.51;101333.00;5078972;27;45955;-57
2021/05/18 14:28:49;;;;;;;;;0.00;0.00;;;;;23.08;38.01;101338.06;5087342;27;45793;-57
2021/05/18 14:31:16;;;;;;;;;0.00;0.00;;;;;23.06;38.24;101337.34;5082941;27;45544;-57
2021/05/18 14:33:42;;;;;;;;;0.00;0.00;;;;;23.03;38.47;101334.91;5080683;27;45849;-58
2021/05/18 14:36:10;;;;;;;;;0.00;0.00;;;;;23.03;37.91;101334.91;5071406;28;45629;-59
2021/05/18 14:38:39;;;;;;;;;0.00;0.00;;;;;23.03;38.18;101336.75;5087916;27;45583;-59
2021/05/18 14:57:11;;;;;;;;;0.00;0.00;;;;;23.07;37.93;101343.50;5093308;27;45502;-59
2021/05/18 14:59:37;;;;;;;;;0.75;0.00;;;;;23.03;37.95;101334.09;5095055;27;45482;-58
2021/05/18 15:02:03;;;;;;;;;0.00;0.00;;;;;23.12;38.19;101340.50;5088407;27;47150;-57
2021/05/18 15:04:31;;;;;;;;;0.00;0.00;;;;;23.16;38.55;101328.66;5086161;27;45413;-59
2021/05/18 15:06:58;;;;;;;;;0.00;0.00;;;;;23.20;38.40;101330.94;5094861;27;45474;-58
2021/05/18 15:09:26;;;;;;;;;0.00;0.00;;;;;23.25;38.02;101329.75;5095037;27;45722;-57
2021/05/18 15:11:52;;;;;;;;;0.25;0.00;;;;;23.29;37.83;101329.38;5083626;27;46225;-61
2021/05/18 15:14:17;;;;;;;;;0.00;0.00;;;;;23.33;38.38;101324.69;5077868;27;45517;-57
2021/05/18 15:16:43;;;;;;;;;0.00;0.00;;;;;23.36;38.28;101329.78;5073724;28;45430;-56
2021/05/18 15:19:12;;;;;;;;;0.00;0.00;;;;;23.41;38.01;101324.09;5086212;27;45870;-56
2021/05/18 15:21:42;;;;;;;;;0.00;0.00;;;;;23.46;37.84;101325.44;5085598;27;46371;-57
2021/05/18 15:24:09;;;;;;;;;1.00;0.00;;;;;23.51;37.74;101322.41;5073209;27;45415;-58
2021/05/18 15:26:35;;;;;;;;;0.00;0.00;;;;;23.57;37.60;101327.25;5088431;27;45712;-56
2021/05/18 15:29:02;;;;;;;;;0.00;0.00;;;;;23.64;37.67;101327.59;5089461;27;45617;-57
2021/05/18 15:31:28;;;;;;;;;0.00;0.00;;;;;23.70;38.16;101334.28;5085529;27;45736;-54
2021/05/18 15:33:54;;;;;;;;;0.00;0.00;;;;;23.71;37.95;101330.63;5075569;27;45487;-56
2021/05/18 15:36:20;;;;;;;;;0.00;0.00;;;;;23.86;37.44;101340.09;5087642;27;45569;-55
2021/05/18 15:38:47;;;;;;;;;0.00;0.00;;;;;23.95;37.33;101343.81;5086198;27;45559;-59
2021/05/18 15:41:15;;;;;;;;;0.00;0.00;;;;;24.03;37.76;101340.53;5085307;27;46115;-55
2021/05/18 15:43:41;;;;;;;;;0.00;0.00;;;;;24.13;37.15;101340.69;5087367;27;45548;-55
2021/05/18 15:46:07;;;;;;;;;0.00;0.00;;;;;24.23;37.66;101344.31;5076183;27;45917;-59
2021/05/18 15:48:33;;;;;;;;;0.00;0.00;;;;;24.28;37.17;101334.09;5074374;27;45865;-56
2021/05/18 15:50:59;;;;;;;;;0.00;0.00;;;;;24.36;37.47;101343.28;5082133;27;46343;-57
2021/05/18 15:53:25;;;;;;;;;0.00;0.00;;;;;24.38;37.07;101342.19;5091764;27;45802;-56
2021/05/18 15:55:51;;;;;;;;;0.00;0.00;;;;;24.39;36.97;101351.88;5085199;27;45678;-59
2021/05/18 15:58:16;;;;;;;;;0.00;0.00;;;;;24.39;37.27;101349.22;5092706;27;45373;-57
2021/05/18 16:00:47;;;;;;;;;0.00;0.00;;;;;24.39;37.16;101357.22;5088132;27;46003;-57
2021/05/18 16:03:13;;;;;;;;;0.00;0.00;;;;;24.37;37.33;101361.84;5087475;27;45551;-56
2021/05/18 16:05:38;;;;;;;;;0.00;0.00;;;;;24.39;36.86;101361.69;5091878;27;45490;-53
2021/05/18 16:08:09;;;;;;;;;0.50;0.00;;;;;24.39;37.43;101359.91;5083503;27;45468;-54
2021/05/18 16:10:34;;;;;;;;;0.00;0.00;;;;;24.36;36.93;101368.13;5093617;27;46644;-56
2021/05/18 16:13:00;;;;;;;;;0.00;0.00;;;;;24.38;37.02;101376.88;5086302;27;45652;-57
2021/05/18 16:15:29;;;;;;;;;0.00;0.00;;;;;24.33;37.53;101365.75;5075541;27;45492;-57
2021/05/18 16:17:55;;;;;;;;;0.00;0.00;;;;;24.35;37.44;101370.97;5091174;27;45423;-61
2021/05/18 16:20:20;;;;;;;;;0.00;0.00;;;;;24.34;36.89;101375.44;5084303;27;45655;-58
2021/05/18 16:22:49;;;;;;;;;0.00;0.00;;;;;24.34;37.26;101380.78;5081684;27;45391;-58
2021/05/18 16:25:15;;;;;;;;;0.00;0.00;;;;;24.31;36.92;101375.72;5078517;27;45564;-57
2021/05/18 16:27:41;;;;;;;;;0.00;0.00;;;;;24.28;37.01;101376.81;5093657;27;45535;-58
2021/05/18 16:30:07;;;;;;;;;0.00;0.00;;;;;24.25;37.23;101376.19;5092348;27;46283;-57
2021/05/18 16:32:33;;;;;;;;;0.00;0.00;;;;;24.21;37.13;101385.44;5093251;27;45770;-58
2021/05/18 16:35:03;;;;;;;;;0.00;0.00;;;;;24.16;36.83;101393.78;5093721;27;45496;-57
2021/05/18 16:37:31;;;;;;;;;0.00;0.00;;;;;24.07;36.88;101395.34;5093952;27;45796;-57
2021/05/18 16:39:58;;;;;;;;;0.00;0.00;;;;;24.08;37.26;101410.41;5090847;27;46479;-58
2021/05/18 16:42:25;;;;;;;;;0.00;0.00;;;;;24.05;36.72;101409.78;5093383;27;45601;-56
2021/05/18 16:44:50;;;;;;;;;0.00;0.00;;;;;24.02;36.77;101418.88;5093446;27;45785;-57